createdAt,value
2019-03-17T00:01:26.952Z,4.92
2019-03-17T00:03:54.979Z,4.87
2019-03-17T00:06:23.080Z,4.88
2019-03-17T00:08:51.006Z,4.85
2019-03-17T00:11:19.194Z,4.80
2019-03-17T00:13:47.250Z,4.81
2019-03-17T00:16:15.281Z,4.75
2019-03-17T00:18:43.370Z,4.70
2019-03-17T00:21:11.163Z,4.70
2019-03-17T00:23:38.898Z,4.70
2019-03-17T00:26:06.757Z,4.66
2019-03-17T00:28:34.466Z,4.59
2019-03-17T00:31:02.147Z,4.57
2019-03-17T00:33:29.926Z,4.46
2019-03-17T00:35:57.906Z,4.45
2019-03-17T00:38:25.644Z,4.41
2019-03-17T00:40:53.310Z,4.36
2019-03-17T00:43:20.967Z,4.38
2019-03-17T00:45:49.798Z,4.30
2019-03-17T00:48:17.491Z,4.23
2019-03-17T00:50:45.369Z,4.15
2019-03-17T00:53:13.153Z,4.08
2019-03-17T00:55:40.820Z,3.97
2019-03-17T00:58:08.521Z,3.95
2019-03-17T01:00:36.159Z,3.93
2019-03-17T01:03:03.959Z,3.92
2019-03-17T01:05:31.761Z,3.86
2019-03-17T01:07:59.640Z,3.88
2019-03-17T01:10:27.345Z,3.87
2019-03-17T01:12:55.098Z,3.85
2019-03-17T01:15:22.840Z,3.78
2019-03-17T01:17:50.676Z,3.73
2019-03-17T01:20:18.380Z,3.67
2019-03-17T01:22:46.016Z,3.64
2019-03-17T01:25:13.617Z,3.60
2019-03-17T01:27:41.193Z,3.65
2019-03-17T01:30:08.932Z,3.63
2019-03-17T01:32:36.558Z,3.56
2019-03-17T01:35:09.621Z,3.59
2019-03-17T01:37:34.663Z,3.58
2019-03-17T01:40:02.382Z,3.61
2019-03-17T01:42:29.951Z,3.50
2019-03-17T01:44:57.638Z,3.48
2019-03-17T01:47:27.707Z,3.36
2019-03-17T01:49:54.896Z,3.45
2019-03-17T01:52:22.512Z,3.41
2019-03-17T01:54:50.115Z,3.33
2019-03-17T01:57:17.738Z,3.16
2019-03-17T01:59:45.410Z,3.29
2019-03-17T02:02:13.063Z,3.33
2019-03-17T02:04:40.761Z,3.35
2019-03-17T02:07:08.417Z,3.33
2019-03-17T02:09:36.128Z,3.31
2019-03-17T02:12:03.772Z,2.87
2019-03-17T02:14:31.569Z,3.09
2019-03-17T02:16:59.187Z,3.12
2019-03-17T02:19:26.841Z,3.19
2019-03-17T02:21:54.554Z,3.21
2019-03-17T02:24:22.234Z,3.27
2019-03-17T02:26:49.858Z,3.25
2019-03-17T02:29:17.562Z,3.21
2019-03-17T02:31:45.145Z,3.19
2019-03-17T02:34:12.966Z,3.07
2019-03-17T02:36:40.618Z,3.06
2019-03-17T02:39:08.313Z,3.06
2019-03-17T02:41:35.949Z,3.06
2019-03-17T02:44:03.649Z,3.10
2019-03-17T02:46:31.271Z,3.06
2019-03-17T02:48:59.015Z,3.03
2019-03-17T02:51:26.593Z,3.03
2019-03-17T02:53:54.278Z,3.03
2019-03-17T02:56:21.886Z,2.97
2019-03-17T02:58:49.578Z,2.94
2019-03-17T03:01:17.267Z,2.96
2019-03-17T03:03:45.031Z,2.96
2019-03-17T03:06:13.055Z,2.91
2019-03-17T03:08:42.307Z,2.85
2019-03-17T03:11:10.190Z,2.84
2019-03-17T03:13:38.304Z,2.81
2019-03-17T03:16:06.419Z,2.79
2019-03-17T03:18:34.674Z,2.70
2019-03-17T03:21:02.273Z,2.81
2019-03-17T03:23:30.297Z,2.60
2019-03-17T03:25:58.281Z,2.79
2019-03-17T03:28:28.162Z,2.80
2019-03-17T03:30:56.214Z,2.76
2019-03-17T03:33:24.065Z,2.80
2019-03-17T03:35:52.239Z,2.74
2019-03-17T03:38:20.263Z,2.79
2019-03-17T03:40:48.121Z,2.77
2019-03-17T03:43:16.212Z,2.66
2019-03-17T03:45:44.261Z,2.64
2019-03-17T03:48:12.359Z,2.74
2019-03-17T03:50:40.215Z,2.68
2019-03-17T03:53:08.168Z,2.55
2019-03-17T03:55:36.216Z,2.36
2019-03-17T03:58:04.218Z,2.48
2019-03-17T04:00:32.283Z,2.51
2019-03-17T04:03:00.357Z,2.50
2019-03-17T04:05:32.408Z,2.40
2019-03-17T04:07:58.498Z,2.39
2019-03-17T04:10:26.472Z,2.46
2019-03-17T04:12:54.615Z,2.45
2019-03-17T04:15:22.614Z,2.40
2019-03-17T04:17:50.849Z,2.37
2019-03-17T04:20:18.707Z,2.37
2019-03-17T04:22:46.606Z,2.39
2019-03-17T04:25:16.472Z,2.37
2019-03-17T04:27:44.376Z,2.38
2019-03-17T04:30:12.529Z,2.35
2019-03-17T04:32:40.525Z,2.36
2019-03-17T04:35:08.679Z,2.39
2019-03-17T04:37:36.644Z,2.38
2019-03-17T04:40:04.499Z,2.41
2019-03-17T04:42:32.202Z,2.40
2019-03-17T04:44:59.895Z,2.41
2019-03-17T04:47:27.608Z,2.44
2019-03-17T04:49:55.346Z,2.42
2019-03-17T04:52:23.039Z,2.44
2019-03-17T04:54:50.771Z,2.40
2019-03-17T04:57:18.498Z,2.21
2019-03-17T04:59:46.216Z,2.24
2019-03-17T05:02:14.926Z,2.29
2019-03-17T05:04:42.607Z,2.22
2019-03-17T05:07:10.383Z,2.18
2019-03-17T05:09:38.084Z,2.15
2019-03-17T05:12:06.011Z,2.18
2019-03-17T05:14:33.751Z,2.18
2019-03-17T05:17:01.427Z,2.17
2019-03-17T05:19:29.130Z,2.26
2019-03-17T05:21:57.870Z,2.38
2019-03-17T05:24:25.622Z,2.51
2019-03-17T05:26:53.222Z,2.52
2019-03-17T05:29:20.927Z,2.55
2019-03-17T05:31:48.540Z,2.46
2019-03-17T05:34:16.313Z,2.49
2019-03-17T05:36:44.873Z,2.57
2019-03-17T05:39:12.562Z,2.65
2019-03-17T05:41:40.288Z,2.77
2019-03-17T05:44:07.987Z,2.73
2019-03-17T05:46:35.575Z,2.77
2019-03-17T05:49:03.477Z,2.78
2019-03-17T05:51:32.526Z,2.74
2019-03-17T05:54:00.155Z,2.75
2019-03-17T05:56:27.816Z,2.84
2019-03-17T05:58:57.161Z,2.83
2019-03-17T06:01:24.722Z,2.83
2019-03-17T06:03:52.420Z,2.78
2019-03-17T06:06:19.975Z,2.73
2019-03-17T06:08:47.674Z,2.75
2019-03-17T06:11:15.316Z,2.90
2019-03-17T06:13:43.369Z,3.01
2019-03-17T06:16:11.364Z,2.89
2019-03-17T06:18:39.262Z,3.04
2019-03-17T06:21:06.862Z,3.08
2019-03-17T06:23:34.743Z,3.16
2019-03-17T06:26:02.340Z,3.24
2019-03-17T06:28:30.010Z,3.41
2019-03-17T06:30:57.613Z,3.49
2019-03-17T06:33:25.293Z,3.62
2019-03-17T06:35:52.894Z,3.69
2019-03-17T06:38:20.566Z,3.76
2019-03-17T06:40:48.264Z,3.78
2019-03-17T06:43:15.978Z,3.89
2019-03-17T06:45:43.550Z,4.03
2019-03-17T06:48:11.162Z,4.07
2019-03-17T06:50:38.728Z,4.14
2019-03-17T06:53:06.474Z,4.16
2019-03-17T06:55:34.071Z,4.27
2019-03-17T06:58:01.676Z,4.41
2019-03-17T07:00:29.478Z,4.45
2019-03-17T07:02:57.254Z,4.44
2019-03-17T07:05:24.952Z,4.51
2019-03-17T07:07:52.691Z,4.62
2019-03-17T07:10:22.061Z,4.70
2019-03-17T07:12:49.854Z,4.73
2019-03-17T07:15:17.523Z,4.76
2019-03-17T07:17:45.157Z,4.84
2019-03-17T07:20:12.789Z,4.94
2019-03-17T07:22:40.403Z,5.00
2019-03-17T07:25:08.485Z,5.28
2019-03-17T07:27:36.161Z,5.63
2019-03-17T07:30:05.791Z,6.02
2019-03-17T07:32:33.561Z,6.38
2019-03-17T07:35:01.242Z,6.78
2019-03-17T07:37:28.951Z,7.05
2019-03-17T07:39:56.794Z,7.31
2019-03-17T07:42:24.631Z,7.59
2019-03-17T07:44:52.388Z,7.91
2019-03-17T07:47:20.033Z,8.31
2019-03-17T07:49:47.707Z,8.62
2019-03-17T07:52:15.379Z,8.97
2019-03-17T07:54:43.090Z,9.34
2019-03-17T07:57:12.457Z,9.66
2019-03-17T07:59:40.145Z,9.99
2019-03-17T08:02:07.806Z,10.20
2019-03-17T08:04:42.318Z,10.38
2019-03-17T08:07:05.046Z,10.62
2019-03-17T08:09:33.125Z,10.83
2019-03-17T08:12:00.701Z,10.77
2019-03-17T08:14:28.391Z,10.88
2019-03-17T08:16:56.602Z,10.99
2019-03-17T08:19:24.647Z,11.02
2019-03-17T08:21:52.272Z,11.08
2019-03-17T08:24:19.974Z,11.09
2019-03-17T08:26:50.036Z,11.06
2019-03-17T08:29:19.158Z,11.01
2019-03-17T08:31:47.165Z,11.09
2019-03-17T08:34:15.255Z,11.22
2019-03-17T08:36:43.069Z,11.35
2019-03-17T08:39:11.031Z,11.45
2019-03-17T08:41:39.207Z,11.91
2019-03-17T08:44:08.937Z,12.11
2019-03-17T08:46:36.964Z,12.19
2019-03-17T08:49:05.117Z,12.48
2019-03-17T08:51:33.613Z,12.92
2019-03-17T08:54:01.823Z,13.34
2019-03-17T08:56:29.564Z,13.69
2019-03-17T08:58:57.343Z,14.17
2019-03-17T09:01:25.362Z,14.70
2019-03-17T09:03:53.439Z,15.12
2019-03-17T09:06:21.087Z,15.57
2019-03-17T09:08:48.859Z,15.95
2019-03-17T09:11:16.476Z,16.00
2019-03-17T09:13:44.117Z,16.33
2019-03-17T09:16:11.678Z,16.79
2019-03-17T09:18:39.396Z,17.17
2019-03-17T09:21:06.972Z,17.24
2019-03-17T09:23:34.685Z,17.44
2019-03-17T09:26:03.267Z,17.87
2019-03-17T09:28:30.994Z,18.07
2019-03-17T09:30:58.648Z,18.59
2019-03-17T09:33:26.846Z,18.57
2019-03-17T09:35:54.790Z,18.70
2019-03-17T09:38:22.858Z,18.46
2019-03-17T09:40:50.713Z,18.28
2019-03-17T09:43:18.502Z,18.71
2019-03-17T09:45:46.153Z,19.06
2019-03-17T09:48:13.835Z,18.97
2019-03-17T09:50:41.496Z,19.21
2019-03-17T09:53:09.073Z,19.39
2019-03-17T09:55:36.800Z,19.42
2019-03-17T09:58:04.481Z,19.45
2019-03-17T10:00:32.076Z,19.66
2019-03-17T10:02:59.687Z,19.86
2019-03-17T10:05:27.365Z,19.84
2019-03-17T10:07:55.063Z,20.10
2019-03-17T10:10:22.887Z,20.25
2019-03-17T10:12:50.545Z,20.26
2019-03-17T10:15:22.965Z,20.48
2019-03-17T10:17:52.473Z,20.50
2019-03-17T10:20:20.282Z,20.46
2019-03-17T10:22:47.939Z,20.40
2019-03-17T10:25:16.820Z,20.50
2019-03-17T10:27:45.587Z,20.78
2019-03-17T10:30:13.631Z,21.03
2019-03-17T10:32:41.177Z,20.91
2019-03-17T10:35:08.883Z,21.09
2019-03-17T10:37:36.561Z,21.24
2019-03-17T10:40:07.318Z,21.28
2019-03-17T10:42:35.069Z,21.40
2019-03-17T10:45:02.709Z,21.53
2019-03-17T10:47:34.298Z,21.83
2019-03-17T10:50:07.821Z,21.72
2019-03-17T10:52:38.005Z,21.71
2019-03-17T10:55:07.659Z,21.98
2019-03-17T10:57:35.364Z,22.17
2019-03-17T11:00:08.780Z,22.37
2019-03-17T11:02:37.673Z,22.48
2019-03-17T11:05:07.482Z,22.49
2019-03-17T11:07:37.935Z,22.58
2019-03-17T11:10:06.731Z,22.56
2019-03-17T11:12:34.383Z,22.61
2019-03-17T11:15:03.716Z,22.63
2019-03-17T11:17:33.646Z,22.84
2019-03-17T11:20:01.737Z,22.84
2019-03-17T11:22:29.530Z,22.96
2019-03-17T11:24:59.797Z,23.16
2019-03-17T11:27:30.091Z,23.22
2019-03-17T11:29:57.919Z,23.31
2019-03-17T11:32:25.509Z,23.37
2019-03-17T11:34:53.136Z,23.43
2019-03-17T11:37:23.454Z,23.43
2019-03-17T11:39:50.348Z,23.69
2019-03-17T11:42:18.077Z,23.81
2019-03-17T11:44:45.810Z,23.63
2019-03-17T11:47:13.397Z,24.04
2019-03-17T11:49:41.145Z,24.23
2019-03-17T11:52:08.871Z,24.42
2019-03-17T11:54:36.449Z,24.66
2019-03-17T11:57:04.097Z,24.74
2019-03-17T11:59:31.748Z,24.73
2019-03-17T12:01:59.387Z,24.88
2019-03-17T12:04:27.076Z,25.13
2019-03-17T12:06:54.718Z,25.21
2019-03-17T12:09:29.034Z,25.20
2019-03-17T12:11:51.860Z,25.07
2019-03-17T12:14:19.510Z,25.18
2019-03-17T12:16:47.196Z,25.30
2019-03-17T12:19:14.804Z,25.33
2019-03-17T12:21:42.435Z,25.40
2019-03-17T12:24:11.057Z,25.62
2019-03-17T12:26:38.723Z,25.68
2019-03-17T12:29:07.186Z,25.73
2019-03-17T12:31:34.820Z,25.84
2019-03-17T12:34:02.679Z,26.02
2019-03-17T12:36:30.448Z,26.27
2019-03-17T12:38:58.170Z,26.30
2019-03-17T12:41:25.920Z,26.50
2019-03-17T12:43:53.621Z,26.58
2019-03-17T12:46:21.196Z,26.64
2019-03-17T12:48:50.031Z,26.63
2019-03-17T12:51:17.667Z,26.65
2019-03-17T12:53:45.349Z,26.75
2019-03-17T12:56:12.883Z,26.71
2019-03-17T12:58:43.665Z,26.58
2019-03-17T13:01:11.307Z,26.45
2019-03-17T13:03:39.001Z,26.29
2019-03-17T13:06:07.641Z,26.22
2019-03-17T13:08:35.300Z,26.21
2019-03-17T13:11:02.938Z,26.38
2019-03-17T13:13:32.107Z,26.72
2019-03-17T13:15:59.682Z,26.92
2019-03-17T13:18:31.131Z,27.10
2019-03-17T13:20:59.865Z,27.17
2019-03-17T13:23:27.515Z,26.63
2019-03-17T13:25:55.085Z,25.94
2019-03-17T13:28:22.681Z,25.08
2019-03-17T13:30:50.305Z,25.33
2019-03-17T13:33:17.946Z,25.10
2019-03-17T13:35:45.789Z,24.40
2019-03-17T13:38:13.350Z,24.24
2019-03-17T13:40:40.991Z,24.42
2019-03-17T13:43:08.587Z,24.10
2019-03-17T13:45:36.263Z,24.06
2019-03-17T13:48:03.970Z,23.74
2019-03-17T13:50:31.674Z,23.75
2019-03-17T13:52:59.342Z,23.43
2019-03-17T13:55:26.925Z,22.79
2019-03-17T13:57:55.788Z,23.26
2019-03-17T14:00:23.493Z,22.63
2019-03-17T14:02:51.181Z,22.52
2019-03-17T14:05:18.853Z,22.87
2019-03-17T14:07:46.436Z,22.22
2019-03-17T14:10:14.942Z,21.95
2019-03-17T14:12:42.650Z,22.61
2019-03-17T14:15:11.717Z,22.77
2019-03-17T14:17:39.403Z,22.24
2019-03-17T14:20:08.945Z,22.04
2019-03-17T14:22:36.637Z,22.37
2019-03-17T14:25:06.422Z,22.13
2019-03-17T14:27:34.114Z,21.73
2019-03-17T14:30:01.673Z,21.95
2019-03-17T14:32:29.292Z,22.55
2019-03-17T14:34:56.911Z,22.45
2019-03-17T14:37:24.608Z,21.91
2019-03-17T14:39:52.343Z,21.90
2019-03-17T14:42:20.025Z,21.54
2019-03-17T14:44:47.730Z,21.35
2019-03-17T14:47:15.399Z,20.87
2019-03-17T14:49:43.023Z,20.77
2019-03-17T14:52:10.703Z,20.76
2019-03-17T14:54:38.292Z,20.75
2019-03-17T14:57:06.147Z,20.60
2019-03-17T14:59:33.761Z,20.38
2019-03-17T15:02:01.357Z,20.09
2019-03-17T15:04:29.296Z,19.64
2019-03-17T15:06:56.854Z,19.51
2019-03-17T15:09:24.447Z,19.37
2019-03-17T15:11:52.054Z,19.26
2019-03-17T15:14:20.013Z,19.44
2019-03-17T15:16:47.797Z,19.65
2019-03-17T15:19:15.779Z,19.69
2019-03-17T15:21:43.632Z,19.57
2019-03-17T15:24:11.279Z,19.41
2019-03-17T15:26:39.287Z,19.25
2019-03-17T15:29:07.242Z,19.23
2019-03-17T15:31:35.101Z,19.15
2019-03-17T15:34:02.983Z,19.20
2019-03-17T15:36:30.836Z,19.26
2019-03-17T15:38:58.881Z,19.25
2019-03-17T15:41:26.813Z,19.17
2019-03-17T15:43:55.023Z,19.09
2019-03-17T15:46:22.884Z,19.03
2019-03-17T15:48:51.045Z,18.94
2019-03-17T15:51:20.849Z,18.76
2019-03-17T15:53:49.253Z,18.72
2019-03-17T15:56:17.273Z,18.73
2019-03-17T15:58:45.509Z,18.61
2019-03-17T16:01:13.534Z,18.50
2019-03-17T16:03:41.539Z,18.46
2019-03-17T16:06:09.571Z,18.61
2019-03-17T16:08:37.458Z,18.72
2019-03-17T16:11:05.855Z,18.88
2019-03-17T16:13:34.055Z,18.91
2019-03-17T16:16:01.927Z,18.79
2019-03-17T16:18:29.798Z,18.65
2019-03-17T16:20:57.712Z,18.65
2019-03-17T16:23:25.704Z,18.67
2019-03-17T16:25:53.730Z,18.63
2019-03-17T16:28:21.798Z,18.61
2019-03-17T16:30:49.688Z,18.55
2019-03-17T16:33:17.791Z,18.49
2019-03-17T16:35:46.448Z,18.36
2019-03-17T16:38:14.721Z,18.24
2019-03-17T16:40:43.872Z,18.13
2019-03-17T16:43:21.152Z,17.92
2019-03-17T16:45:49.130Z,17.81
2019-03-17T16:48:18.601Z,17.66
2019-03-17T16:50:46.820Z,17.50
2019-03-17T16:53:15.069Z,17.43
2019-03-17T16:55:45.035Z,17.31
2019-03-17T16:58:12.989Z,17.22
2019-03-17T17:00:41.220Z,17.11
2019-03-17T17:03:09.305Z,16.98
2019-03-17T17:05:37.222Z,17.02
2019-03-17T17:08:05.118Z,16.86
2019-03-17T17:10:33.056Z,16.77
2019-03-17T17:13:01.214Z,16.62
2019-03-17T17:15:29.334Z,16.50
2019-03-17T17:17:58.214Z,16.45
2019-03-17T17:20:27.910Z,16.41
2019-03-17T17:22:57.000Z,16.31
2019-03-17T17:25:24.988Z,16.27
2019-03-17T17:27:52.980Z,16.14
2019-03-17T17:30:22.062Z,16.05
2019-03-17T17:32:50.125Z,15.98
2019-03-17T17:35:18.658Z,15.91
2019-03-17T17:37:46.620Z,15.83
2019-03-17T17:40:15.281Z,15.81
2019-03-17T17:42:43.260Z,15.73
2019-03-17T17:45:12.503Z,15.65
2019-03-17T17:47:40.294Z,15.56
2019-03-17T17:50:09.402Z,15.53
2019-03-17T17:52:37.405Z,15.51
2019-03-17T17:55:07.274Z,15.45
2019-03-17T17:57:35.184Z,15.44
2019-03-17T18:00:04.240Z,15.38
2019-03-17T18:02:32.539Z,15.41
2019-03-17T18:05:00.626Z,15.36
2019-03-17T18:07:28.474Z,15.27
2019-03-17T18:09:56.515Z,15.25
2019-03-17T18:12:24.528Z,15.20
2019-03-17T18:14:52.478Z,15.10
2019-03-17T18:17:20.245Z,15.08
2019-03-17T18:19:48.224Z,15.07
2019-03-17T18:22:16.140Z,15.01
2019-03-17T18:24:44.052Z,15.00
2019-03-17T18:27:14.937Z,14.96
2019-03-17T18:29:42.964Z,14.92
2019-03-17T18:32:11.120Z,14.89
2019-03-17T18:34:39.123Z,14.85
2019-03-17T18:44:19.752Z,15.45
2019-03-17T18:46:47.873Z,17.13
2019-03-17T18:49:15.929Z,17.91
2019-03-17T19:05:20.182Z,23.68
2019-03-17T19:07:47.991Z,23.74
2019-03-17T19:10:16.718Z,23.71
2019-03-17T19:43:34.616Z,24.84
2019-03-17T19:46:02.387Z,24.12
2019-03-17T19:52:01.411Z,24.62
2019-03-17T19:54:29.122Z,24.81
2019-03-17T19:56:56.792Z,24.66
